General Aviation Weather

Text Reports

Enter one or more of the following location identifiers separated by a space:

Zip Code, Four-Character ICAO or Three-Character IATA airport codes.

METAR - Aviation Routine Weather Report
KOVS - Boscobel, Wisconsin
Updated at 7:00 AM GMT on January 29, 2015 (1:00 AM CST):
SPECI KOVS 290700Z AUTO 00000KT 7SM FEW017 OVC029 01/M02 A2978 RMK AO2 T00111022
TAF - Terminal Area Forecast
KOVS - Boscobel, Wisconsin
Updated at 7:00 AM GMT on January 29, 2015 (1:00 AM CST):
No TAF is currently available for this location.
Decoded:
No decoded TAF is available.
PIREP - Pilot Weather Report
KOVS - Boscobel, Wisconsin
Updated at 7:00 AM GMT on January 29, 2015 (1:00 AM CST):
No PIREP is currently available for this location.
AIRMET - Airmens Meteorological Information
KOVS - Boscobel, Wisconsin
Updated at 7:00 AM GMT on January 29, 2015 (1:00 AM CST):
No AIRMET is currently available for this location.
SIGMET - Significant Meteorological Information
KOVS - Boscobel, Wisconsin
Updated at 7:00 AM GMT on January 29, 2015 (1:00 AM CST):
No SIGMET is currently available for this location.
NOTAM - Notice to Airmen
KOVS - Boscobel, Wisconsin
Updated at 7:00 AM GMT on January 29, 2015 (1:00 AM CST):
No NOTAM is currently available for this location.
Forecast Area
KOVS - Boscobel, Wisconsin
Updated at 7:00 AM GMT on January 29, 2015 (1:00 AM CST):
No NOTAM is currently available for this location.
Aviation Weather Maps